sensor_id;sensor_type;location;lat;lon;timestamp;P1;durP1;ratioP1;P2;durP2;ratioP2
59653;SDS011;66556;52.008;5.432;2023-03-23T00:01:11;8.6;;;3.7;;
59653;SDS011;66556;52.008;5.432;2023-03-23T00:04:25;7.5;;;3.6;;
59653;SDS011;66556;52.008;5.432;2023-03-23T00:06:02;7.3;;;3.8;;
59653;SDS011;66556;52.008;5.432;2023-03-23T00:07:38;7.4;;;3.9;;
59653;SDS011;66556;52.008;5.432;2023-03-23T00:10:51;8.1;;;3.8;;
59653;SDS011;66556;52.008;5.432;2023-03-23T00:12:28;7.5;;;3.9;;
59653;SDS011;66556;52.008;5.432;2023-03-23T00:14:07;8.31;;;3.6;;
59653;SDS011;66556;52.008;5.432;2023-03-23T00:15:45;8.5;;;3.7;;
59653;SDS011;66556;52.008;5.432;2023-03-23T00:18:59;6.9;;;3.5;;
59653;SDS011;66556;52.008;5.432;2023-03-23T00:20:37;6.4;;;3.4;;
59653;SDS011;66556;52.008;5.432;2023-03-23T00:22:15;10.6;;;3.8;;
59653;SDS011;66556;52.008;5.432;2023-03-23T00:25:29;6.1;;;3.4;;
59653;SDS011;66556;52.008;5.432;2023-03-23T00:27:05;5.7;;;3.1;;
59653;SDS011;66556;52.008;5.432;2023-03-23T00:28:41;8.31;;;3.4;;
59653;SDS011;66556;52.008;5.432;2023-03-23T00:30:17;6.6;;;3.0;;
59653;SDS011;66556;52.008;5.432;2023-03-23T00:33:30;7.3;;;3.5;;
59653;SDS011;66556;52.008;5.432;2023-03-23T00:35:09;6.8;;;3.2;;
59653;SDS011;66556;52.008;5.432;2023-03-23T00:36:45;4.91;;;3.1;;
59653;SDS011;66556;52.008;5.432;2023-03-23T00:40:00;5.9;;;3.3;;
59653;SDS011;66556;52.008;5.432;2023-03-23T00:41:36;7.3;;;3.3;;
59653;SDS011;66556;52.008;5.432;2023-03-23T00:43:12;6.2;;;3.6;;
59653;SDS011;66556;52.008;5.432;2023-03-23T00:46:25;7.8;;;3.7;;
59653;SDS011;66556;52.008;5.432;2023-03-23T00:48:01;7.2;;;3.5;;
59653;SDS011;66556;52.008;5.432;2023-03-23T00:49:37;7.3;;;3.3;;
59653;SDS011;66556;52.008;5.432;2023-03-23T00:51:14;7.4;;;3.3;;
59653;SDS011;66556;52.008;5.432;2023-03-23T00:54:27;6.1;;;3.0;;
59653;SDS011;66556;52.008;5.432;2023-03-23T00:56:04;7.2;;;3.3;;
59653;SDS011;66556;52.008;5.432;2023-03-23T00:57:41;6.2;;;3.2;;
59653;SDS011;66556;52.008;5.432;2023-03-23T01:00:54;7.4;;;3.4;;
59653;SDS011;66556;52.008;5.432;2023-03-23T01:02:30;6.3;;;3.2;;
59653;SDS011;66556;52.008;5.432;2023-03-23T01:04:08;6.2;;;2.9;;
59653;SDS011;66556;52.008;5.432;2023-03-23T01:07:21;8.1;;;3.3;;
59653;SDS011;66556;52.008;5.432;2023-03-23T01:08:58;6.5;;;3.1;;
59653;SDS011;66556;52.008;5.432;2023-03-23T01:10:35;6.4;;;3.0;;
59653;SDS011;66556;52.008;5.432;2023-03-23T01:12:11;6.3;;;3.0;;
59653;SDS011;66556;52.008;5.432;2023-03-23T01:15:23;7.6;;;3.0;;
59653;SDS011;66556;52.008;5.432;2023-03-23T01:16:59;4.8;;;2.8;;
59653;SDS011;66556;52.008;5.432;2023-03-23T01:18:35;4.61;;;2.7;;
59653;SDS011;66556;52.008;5.432;2023-03-23T01:21:50;5.8;;;2.9;;
59653;SDS011;66556;52.008;5.432;2023-03-23T01:23:27;5.8;;;2.9;;
59653;SDS011;66556;52.008;5.432;2023-03-23T01:25:03;7.5;;;2.4;;
59653;SDS011;66556;52.008;5.432;2023-03-23T01:28:16;6.3;;;2.7;;
59653;SDS011;66556;52.008;5.432;2023-03-23T01:29:52;4.91;;;2.6;;
59653;SDS011;66556;52.008;5.432;2023-03-23T01:31:28;7.0;;;3.0;;
59653;SDS011;66556;52.008;5.432;2023-03-23T01:33:04;6.1;;;2.6;;
59653;SDS011;66556;52.008;5.432;2023-03-23T01:36:18;4.1;;;2.7;;
59653;SDS011;66556;52.008;5.432;2023-03-23T01:37:57;5.2;;;2.9;;
59653;SDS011;66556;52.008;5.432;2023-03-23T01:39:33;5.11;;;2.8;;
59653;SDS011;66556;52.008;5.432;2023-03-23T01:42:50;6.0;;;3.0;;
59653;SDS011;66556;52.008;5.432;2023-03-23T01:45:22;5.3;;;2.9;;
59653;SDS011;66556;52.008;5.432;2023-03-23T01:47:01;4.61;;;3.2;;
59653;SDS011;66556;52.008;5.432;2023-03-23T01:48:38;7.0;;;3.1;;
59653;SDS011;66556;52.008;5.432;2023-03-23T01:50:15;4.1;;;2.9;;
59653;SDS011;66556;52.008;5.432;2023-03-23T01:51:53;4.91;;;2.8;;
59653;SDS011;66556;52.008;5.432;2023-03-23T01:55:16;7.9;;;3.5;;
59653;SDS011;66556;52.008;5.432;2023-03-23T01:56:53;5.11;;;2.8;;
59653;SDS011;66556;52.008;5.432;2023-03-23T01:58:34;4.5;;;3.2;;
59653;SDS011;66556;52.008;5.432;2023-03-23T02:01:50;5.8;;;3.1;;
59653;SDS011;66556;52.008;5.432;2023-03-23T02:03:29;4.7;;;3.0;;
59653;SDS011;66556;52.008;5.432;2023-03-23T02:05:08;4.7;;;2.8;;
59653;SDS011;66556;52.008;5.432;2023-03-23T02:06:49;6.3;;;3.2;;
59653;SDS011;66556;52.008;5.432;2023-03-23T02:10:04;4.7;;;3.0;;
59653;SDS011;66556;52.008;5.432;2023-03-23T02:11:41;4.8;;;3.2;;
59653;SDS011;66556;52.008;5.432;2023-03-23T02:13:17;4.8;;;2.9;;
59653;SDS011;66556;52.008;5.432;2023-03-23T02:14:54;5.2;;;2.9;;
59653;SDS011;66556;52.008;5.432;2023-03-23T02:18:19;6.1;;;3.0;;
59653;SDS011;66556;52.008;5.432;2023-03-23T02:20:17;5.3;;;3.5;;
59653;SDS011;66556;52.008;5.432;2023-03-23T02:22:14;5.4;;;2.9;;
59653;SDS011;66556;52.008;5.432;2023-03-23T02:25:38;4.5;;;3.3;;
59653;SDS011;66556;52.008;5.432;2023-03-23T02:27:38;5.11;;;3.2;;
59653;SDS011;66556;52.008;5.432;2023-03-23T02:30:04;6.5;;;3.4;;
59653;SDS011;66556;52.008;5.432;2023-03-23T02:32:04;4.8;;;3.6;;
59653;SDS011;66556;52.008;5.432;2023-03-23T02:33:51;4.8;;;3.6;;
59653;SDS011;66556;52.008;5.432;2023-03-23T02:37:13;5.6;;;3.2;;
59653;SDS011;66556;52.008;5.432;2023-03-23T02:38:57;5.8;;;3.3;;
59653;SDS011;66556;52.008;5.432;2023-03-23T02:40:41;5.3;;;3.2;;
59653;SDS011;66556;52.008;5.432;2023-03-23T02:42:21;5.11;;;3.0;;
59653;SDS011;66556;52.008;5.432;2023-03-23T02:45:41;5.4;;;3.4;;
59653;SDS011;66556;52.008;5.432;2023-03-23T02:47:21;6.1;;;3.5;;
59653;SDS011;66556;52.008;5.432;2023-03-23T02:49:00;6.0;;;3.3;;
59653;SDS011;66556;52.008;5.432;2023-03-23T02:50:41;6.3;;;3.3;;
59653;SDS011;66556;52.008;5.432;2023-03-23T02:54:03;6.4;;;4.0;;
59653;SDS011;66556;52.008;5.432;2023-03-23T02:55:42;7.1;;;3.6;;
59653;SDS011;66556;52.008;5.432;2023-03-23T02:57:20;5.2;;;3.5;;
59653;SDS011;66556;52.008;5.432;2023-03-23T02:58:58;7.2;;;3.7;;
59653;SDS011;66556;52.008;5.432;2023-03-23T03:02:12;5.6;;;3.3;;
59653;SDS011;66556;52.008;5.432;2023-03-23T03:03:53;4.2;;;3.4;;
59653;SDS011;66556;52.008;5.432;2023-03-23T03:05:35;5.3;;;3.6;;
59653;SDS011;66556;52.008;5.432;2023-03-23T03:07:23;5.6;;;3.3;;
59653;SDS011;66556;52.008;5.432;2023-03-23T03:09:25;7.1;;;3.9;;
59653;SDS011;66556;52.008;5.432;2023-03-23T03:12:51;7.4;;;3.5;;
59653;SDS011;66556;52.008;5.432;2023-03-23T03:14:34;5.3;;;3.1;;
59653;SDS011;66556;52.008;5.432;2023-03-23T03:16:19;7.1;;;3.2;;
59653;SDS011;66556;52.008;5.432;2023-03-23T03:18:05;7.2;;;3.3;;
59653;SDS011;66556;52.008;5.432;2023-03-23T03:19:48;8.6;;;3.4;;
59653;SDS011;66556;52.008;5.432;2023-03-23T03:23:10;8.0;;;3.0;;
59653;SDS011;66556;52.008;5.432;2023-03-23T03:24:49;6.0;;;3.0;;
59653;SDS011;66556;52.008;5.432;2023-03-23T03:26:27;6.5;;;3.1;;
59653;SDS011;66556;52.008;5.432;2023-03-23T03:28:06;6.0;;;2.9;;
59653;SDS011;66556;52.008;5.432;2023-03-23T03:31:22;6.3;;;2.9;;
59653;SDS011;66556;52.008;5.432;2023-03-23T03:33:04;7.7;;;3.1;;
59653;SDS011;66556;52.008;5.432;2023-03-23T03:34:40;5.6;;;2.6;;
59653;SDS011;66556;52.008;5.432;2023-03-23T03:37:57;6.8;;;2.9;;
59653;SDS011;66556;52.008;5.432;2023-03-23T03:39:41;7.1;;;2.9;;
59653;SDS011;66556;52.008;5.432;2023-03-23T03:41:17;8.0;;;3.1;;
59653;SDS011;66556;52.008;5.432;2023-03-23T03:42:55;7.0;;;3.0;;
59653;SDS011;66556;52.008;5.432;2023-03-23T03:46:08;5.8;;;2.9;;
59653;SDS011;66556;52.008;5.432;2023-03-23T03:47:44;6.4;;;2.9;;
59653;SDS011;66556;52.008;5.432;2023-03-23T03:49:21;6.7;;;3.0;;
59653;SDS011;66556;52.008;5.432;2023-03-23T03:52:33;7.4;;;3.1;;
59653;SDS011;66556;52.008;5.432;2023-03-23T03:54:10;5.6;;;2.9;;
59653;SDS011;66556;52.008;5.432;2023-03-23T03:55:46;6.7;;;2.7;;
59653;SDS011;66556;52.008;5.432;2023-03-23T03:57:22;5.0;;;3.0;;
59653;SDS011;66556;52.008;5.432;2023-03-23T04:00:35;4.8;;;2.6;;
59653;SDS011;66556;52.008;5.432;2023-03-23T04:02:11;9.0;;;3.0;;
59653;SDS011;66556;52.008;5.432;2023-03-23T04:03:47;4.3;;;2.4;;
59653;SDS011;66556;52.008;5.432;2023-03-23T04:06:59;6.2;;;2.9;;
59653;SDS011;66556;52.008;5.432;2023-03-23T04:08:36;5.4;;;2.5;;
59653;SDS011;66556;52.008;5.432;2023-03-23T04:10:13;4.8;;;2.5;;
59653;SDS011;66556;52.008;5.432;2023-03-23T04:13:25;5.4;;;2.4;;
59653;SDS011;66556;52.008;5.432;2023-03-23T04:15:01;5.4;;;2.4;;
59653;SDS011;66556;52.008;5.432;2023-03-23T04:16:38;5.6;;;2.8;;
59653;SDS011;66556;52.008;5.432;2023-03-23T04:19:52;7.4;;;2.5;;
59653;SDS011;66556;52.008;5.432;2023-03-23T04:21:29;5.7;;;2.31;;
59653;SDS011;66556;52.008;5.432;2023-03-23T04:23:05;6.2;;;2.5;;
59653;SDS011;66556;52.008;5.432;2023-03-23T04:24:42;7.8;;;2.8;;
59653;SDS011;66556;52.008;5.432;2023-03-23T04:27:54;4.2;;;2.1;;
59653;SDS011;66556;52.008;5.432;2023-03-23T04:29:30;8.81;;;2.5;;
59653;SDS011;66556;52.008;5.432;2023-03-23T04:31:06;6.4;;;2.4;;
59653;SDS011;66556;52.008;5.432;2023-03-23T04:34:18;5.9;;;2.4;;
59653;SDS011;66556;52.008;5.432;2023-03-23T04:35:55;7.7;;;2.7;;
59653;SDS011;66556;52.008;5.432;2023-03-23T04:37:35;7.4;;;2.4;;
59653;SDS011;66556;52.008;5.432;2023-03-23T04:39:14;9.6;;;2.5;;
59653;SDS011;66556;52.008;5.432;2023-03-23T04:42:28;8.1;;;2.1;;
59653;SDS011;66556;52.008;5.432;2023-03-23T04:44:06;8.6;;;2.4;;
59653;SDS011;66556;52.008;5.432;2023-03-23T04:45:43;7.3;;;2.1;;
59653;SDS011;66556;52.008;5.432;2023-03-23T04:48:55;6.8;;;2.31;;
59653;SDS011;66556;52.008;5.432;2023-03-23T04:50:32;10.1;;;2.6;;
59653;SDS011;66556;52.008;5.432;2023-03-23T04:52:09;6.7;;;2.4;;
59653;SDS011;66556;52.008;5.432;2023-03-23T04:55:21;9.0;;;2.4;;
59653;SDS011;66556;52.008;5.432;2023-03-23T04:56:57;9.31;;;2.5;;
59653;SDS011;66556;52.008;5.432;2023-03-23T04:58:33;10.8;;;2.4;;
59653;SDS011;66556;52.008;5.432;2023-03-23T05:00:10;9.71;;;2.1;;
59653;SDS011;66556;52.008;5.432;2023-03-23T05:03:23;12.1;;;2.6;;
59653;SDS011;66556;52.008;5.432;2023-03-23T05:04:59;10.0;;;2.4;;
59653;SDS011;66556;52.008;5.432;2023-03-23T05:06:35;9.31;;;2.5;;
59653;SDS011;66556;52.008;5.432;2023-03-23T05:09:47;9.6;;;2.5;;
59653;SDS011;66556;52.008;5.432;2023-03-23T05:11:24;9.4;;;2.5;;
59653;SDS011;66556;52.008;5.432;2023-03-23T05:13:00;10.3;;;2.4;;
59653;SDS011;66556;52.008;5.432;2023-03-23T05:16:16;9.6;;;2.5;;
59653;SDS011;66556;52.008;5.432;2023-03-23T05:17:52;12.9;;;2.6;;
59653;SDS011;66556;52.008;5.432;2023-03-23T05:19:28;9.6;;;2.4;;
59653;SDS011;66556;52.008;5.432;2023-03-23T05:21:04;10.0;;;2.31;;
59653;SDS011;66556;52.008;5.432;2023-03-23T05:24:17;11.3;;;2.7;;
59653;SDS011;66556;52.008;5.432;2023-03-23T05:25:54;10.21;;;2.31;;
59653;SDS011;66556;52.008;5.432;2023-03-23T05:27:31;10.0;;;2.6;;
59653;SDS011;66556;52.008;5.432;2023-03-23T05:30:43;12.0;;;2.8;;
59653;SDS011;66556;52.008;5.432;2023-03-23T05:32:19;12.6;;;2.7;;
59653;SDS011;66556;52.008;5.432;2023-03-23T05:33:55;14.4;;;2.7;;
59653;SDS011;66556;52.008;5.432;2023-03-23T05:37:08;11.0;;;2.7;;
59653;SDS011;66556;52.008;5.432;2023-03-23T05:38:45;10.0;;;2.5;;
59653;SDS011;66556;52.008;5.432;2023-03-23T05:40:21;12.9;;;2.7;;
59653;SDS011;66556;52.008;5.432;2023-03-23T05:43:33;11.6;;;2.7;;
59653;SDS011;66556;52.008;5.432;2023-03-23T05:45:09;12.8;;;2.4;;
59653;SDS011;66556;52.008;5.432;2023-03-23T05:46:47;10.4;;;2.6;;
59653;SDS011;66556;52.008;5.432;2023-03-23T05:48:23;11.5;;;2.7;;
59653;SDS011;66556;52.008;5.432;2023-03-23T05:51:37;11.4;;;2.4;;
59653;SDS011;66556;52.008;5.432;2023-03-23T05:53:13;11.6;;;2.7;;
59653;SDS011;66556;52.008;5.432;2023-03-23T05:54:49;11.6;;;2.7;;
59653;SDS011;66556;52.008;5.432;2023-03-23T05:58:01;12.0;;;2.4;;
59653;SDS011;66556;52.008;5.432;2023-03-23T05:59:37;11.3;;;2.8;;
59653;SDS011;66556;52.008;5.432;2023-03-23T06:01:13;10.6;;;2.31;;
59653;SDS011;66556;52.008;5.432;2023-03-23T06:04:30;10.9;;;2.5;;
59653;SDS011;66556;52.008;5.432;2023-03-23T06:06:08;11.7;;;2.9;;
59653;SDS011;66556;52.008;5.432;2023-03-23T06:07:46;9.81;;;2.21;;
59653;SDS011;66556;52.008;5.432;2023-03-23T06:09:22;8.9;;;2.31;;
59653;SDS011;66556;52.008;5.432;2023-03-23T06:12:34;9.4;;;2.31;;
59653;SDS011;66556;52.008;5.432;2023-03-23T06:14:10;10.1;;;2.9;;
59653;SDS011;66556;52.008;5.432;2023-03-23T06:15:48;10.5;;;2.6;;
59653;SDS011;66556;52.008;5.432;2023-03-23T06:19:00;9.4;;;2.0;;
59653;SDS011;66556;52.008;5.432;2023-03-23T06:20:36;9.31;;;2.8;;
59653;SDS011;66556;52.008;5.432;2023-03-23T06:22:12;8.5;;;2.0;;
59653;SDS011;66556;52.008;5.432;2023-03-23T06:23:49;11.2;;;2.5;;
59653;SDS011;66556;52.008;5.432;2023-03-23T06:27:02;10.8;;;2.7;;
59653;SDS011;66556;52.008;5.432;2023-03-23T06:28:37;8.9;;;2.21;;
59653;SDS011;66556;52.008;5.432;2023-03-23T06:30:14;10.1;;;2.4;;
59653;SDS011;66556;52.008;5.432;2023-03-23T06:33:32;11.1;;;2.5;;
59653;SDS011;66556;52.008;5.432;2023-03-23T06:35:09;9.1;;;2.4;;
59653;SDS011;66556;52.008;5.432;2023-03-23T06:36:46;8.6;;;2.6;;
59653;SDS011;66556;52.008;5.432;2023-03-23T06:39:59;13.0;;;2.7;;
59653;SDS011;66556;52.008;5.432;2023-03-23T06:41:35;8.81;;;2.21;;
59653;SDS011;66556;52.008;5.432;2023-03-23T06:43:12;13.7;;;2.6;;
59653;SDS011;66556;52.008;5.432;2023-03-23T06:44:49;9.5;;;2.5;;
59653;SDS011;66556;52.008;5.432;2023-03-23T06:48:01;9.5;;;2.5;;
59653;SDS011;66556;52.008;5.432;2023-03-23T06:49:37;11.6;;;2.9;;
59653;SDS011;66556;52.008;5.432;2023-03-23T06:51:13;11.7;;;2.7;;
59653;SDS011;66556;52.008;5.432;2023-03-23T06:54:27;10.9;;;2.7;;
59653;SDS011;66556;52.008;5.432;2023-03-23T06:56:03;11.6;;;2.5;;
59653;SDS011;66556;52.008;5.432;2023-03-23T06:57:39;12.1;;;2.9;;
59653;SDS011;66556;52.008;5.432;2023-03-23T07:00:53;11.6;;;2.5;;
59653;SDS011;66556;52.008;5.432;2023-03-23T07:02:29;11.4;;;2.9;;
59653;SDS011;66556;52.008;5.432;2023-03-23T07:04:05;13.2;;;2.9;;
59653;SDS011;66556;52.008;5.432;2023-03-23T07:05:41;13.2;;;2.9;;
59653;SDS011;66556;52.008;5.432;2023-03-23T07:08:58;13.0;;;2.9;;
59653;SDS011;66556;52.008;5.432;2023-03-23T07:10:34;9.81;;;2.6;;
59653;SDS011;66556;52.008;5.432;2023-03-23T07:12:10;13.3;;;3.2;;
59653;SDS011;66556;52.008;5.432;2023-03-23T07:15:22;8.6;;;2.7;;
59653;SDS011;66556;52.008;5.432;2023-03-23T07:16:58;10.5;;;2.6;;
59653;SDS011;66556;52.008;5.432;2023-03-23T07:18:35;13.1;;;2.9;;
59653;SDS011;66556;52.008;5.432;2023-03-23T07:21:48;11.6;;;2.5;;
59653;SDS011;66556;52.008;5.432;2023-03-23T07:23:24;10.8;;;2.7;;
59653;SDS011;66556;52.008;5.432;2023-03-23T07:25:00;10.8;;;2.7;;
59653;SDS011;66556;52.008;5.432;2023-03-23T07:26:36;12.7;;;2.7;;
59653;SDS011;66556;52.008;5.432;2023-03-23T07:29:48;11.1;;;2.9;;
59653;SDS011;66556;52.008;5.432;2023-03-23T07:31:25;11.4;;;2.8;;
59653;SDS011;66556;52.008;5.432;2023-03-23T07:33:03;11.7;;;2.4;;
59653;SDS011;66556;52.008;5.432;2023-03-23T07:36:17;12.4;;;2.9;;
59653;SDS011;66556;52.008;5.432;2023-03-23T07:37:53;9.81;;;2.6;;
59653;SDS011;66556;52.008;5.432;2023-03-23T07:39:29;10.0;;;2.6;;
59653;SDS011;66556;52.008;5.432;2023-03-23T07:42:43;9.71;;;2.6;;
59653;SDS011;66556;52.008;5.432;2023-03-23T07:44:21;12.3;;;2.7;;
59653;SDS011;66556;52.008;5.432;2023-03-23T07:45:58;11.7;;;2.5;;
59653;SDS011;66556;52.008;5.432;2023-03-23T07:47:34;9.1;;;2.7;;
59653;SDS011;66556;52.008;5.432;2023-03-23T07:50:46;12.6;;;2.8;;
59653;SDS011;66556;52.008;5.432;2023-03-23T07:52:22;11.8;;;3.1;;
59653;SDS011;66556;52.008;5.432;2023-03-23T07:53:59;8.9;;;2.6;;
59653;SDS011;66556;52.008;5.432;2023-03-23T07:57:11;9.71;;;2.4;;
59653;SDS011;66556;52.008;5.432;2023-03-23T07:58:47;12.6;;;2.8;;
59653;SDS011;66556;52.008;5.432;2023-03-23T08:00:25;11.0;;;2.6;;
59653;SDS011;66556;52.008;5.432;2023-03-23T08:03:38;8.5;;;2.0;;
59653;SDS011;66556;52.008;5.432;2023-03-23T08:05:14;8.4;;;2.6;;
59653;SDS011;66556;52.008;5.432;2023-03-23T08:06:51;8.4;;;2.6;;
59653;SDS011;66556;52.008;5.432;2023-03-23T08:08:27;10.8;;;3.0;;
59653;SDS011;66556;52.008;5.432;2023-03-23T08:11:40;8.9;;;2.7;;
59653;SDS011;66556;52.008;5.432;2023-03-23T08:13:17;10.0;;;2.6;;
59653;SDS011;66556;52.008;5.432;2023-03-23T08:14:54;11.6;;;2.7;;
59653;SDS011;66556;52.008;5.432;2023-03-23T08:18:06;11.9;;;2.6;;
59653;SDS011;66556;52.008;5.432;2023-03-23T08:19:43;9.0;;;2.6;;
59653;SDS011;66556;52.008;5.432;2023-03-23T08:21:19;9.21;;;2.6;;
59653;SDS011;66556;52.008;5.432;2023-03-23T08:24:32;8.71;;;2.4;;
59653;SDS011;66556;52.008;5.432;2023-03-23T08:26:09;10.21;;;2.6;;
59653;SDS011;66556;52.008;5.432;2023-03-23T08:27:46;10.4;;;2.9;;
59653;SDS011;66556;52.008;5.432;2023-03-23T08:29:23;9.6;;;2.5;;
59653;SDS011;66556;52.008;5.432;2023-03-23T08:32:36;10.6;;;3.0;;
59653;SDS011;66556;52.008;5.432;2023-03-23T08:34:13;9.81;;;2.8;;
59653;SDS011;66556;52.008;5.432;2023-03-23T08:35:54;9.0;;;2.8;;
59653;SDS011;66556;52.008;5.432;2023-03-23T08:39:08;9.6;;;2.5;;
59653;SDS011;66556;52.008;5.432;2023-03-23T08:40:44;10.4;;;2.6;;
59653;SDS011;66556;52.008;5.432;2023-03-23T08:42:20;10.21;;;2.8;;
59653;SDS011;66556;52.008;5.432;2023-03-23T08:45:32;10.7;;;2.6;;
59653;SDS011;66556;52.008;5.432;2023-03-23T08:47:08;9.71;;;3.0;;
59653;SDS011;66556;52.008;5.432;2023-03-23T08:48:44;9.1;;;2.31;;
59653;SDS011;66556;52.008;5.432;2023-03-23T08:50:22;9.5;;;2.5;;
59653;SDS011;66556;52.008;5.432;2023-03-23T08:53:38;8.2;;;2.4;;
59653;SDS011;66556;52.008;5.432;2023-03-23T08:55:15;8.81;;;2.1;;
59653;SDS011;66556;52.008;5.432;2023-03-23T08:56:52;9.5;;;2.7;;
59653;SDS011;66556;52.008;5.432;2023-03-23T09:00:07;7.8;;;2.4;;
59653;SDS011;66556;52.008;5.432;2023-03-23T09:01:45;9.6;;;2.7;;
59653;SDS011;66556;52.008;5.432;2023-03-23T09:03:21;8.1;;;2.31;;
59653;SDS011;66556;52.008;5.432;2023-03-23T09:04:57;8.81;;;2.31;;
59653;SDS011;66556;52.008;5.432;2023-03-23T09:08:10;7.0;;;2.5;;
59653;SDS011;66556;52.008;5.432;2023-03-23T09:09:47;7.1;;;2.21;;
59653;SDS011;66556;52.008;5.432;2023-03-23T09:11:23;6.2;;;2.1;;
59653;SDS011;66556;52.008;5.432;2023-03-23T09:14:35;7.8;;;1.9;;
59653;SDS011;66556;52.008;5.432;2023-03-23T09:16:13;8.1;;;2.21;;
59653;SDS011;66556;52.008;5.432;2023-03-23T09:17:49;9.5;;;2.31;;
59653;SDS011;66556;52.008;5.432;2023-03-23T09:21:04;9.81;;;2.4;;
59653;SDS011;66556;52.008;5.432;2023-03-23T09:22:42;9.21;;;2.5;;
59653;SDS011;66556;52.008;5.432;2023-03-23T09:24:21;7.8;;;2.4;;
59653;SDS011;66556;52.008;5.432;2023-03-23T09:25:59;9.31;;;2.5;;
59653;SDS011;66556;52.008;5.432;2023-03-23T09:29:14;9.9;;;2.8;;
59653;SDS011;66556;52.008;5.432;2023-03-23T09:30:50;8.71;;;2.4;;
59653;SDS011;66556;52.008;5.432;2023-03-23T09:32:26;10.0;;;2.7;;
59653;SDS011;66556;52.008;5.432;2023-03-23T09:35:38;11.8;;;2.9;;
59653;SDS011;66556;52.008;5.432;2023-03-23T09:37:15;9.4;;;2.6;;
59653;SDS011;66556;52.008;5.432;2023-03-23T09:38:52;9.6;;;2.7;;
59653;SDS011;66556;52.008;5.432;2023-03-23T09:40:30;12.2;;;3.1;;
59653;SDS011;66556;52.008;5.432;2023-03-23T09:44:14;15.1;;;2.6;;
59653;SDS011;66556;52.008;5.432;2023-03-23T09:46:01;12.5;;;3.1;;
59653;SDS011;66556;52.008;5.432;2023-03-23T09:48:23;12.7;;;2.8;;
59653;SDS011;66556;52.008;5.432;2023-03-23T09:50:09;9.71;;;2.4;;
59653;SDS011;66556;52.008;5.432;2023-03-23T09:51:49;10.9;;;2.9;;
59653;SDS011;66556;52.008;5.432;2023-03-23T09:53:30;9.81;;;2.6;;
59653;SDS011;66556;52.008;5.432;2023-03-23T09:55:15;9.9;;;2.6;;
59653;SDS011;66556;52.008;5.432;2023-03-23T09:58:32;9.9;;;2.6;;
59653;SDS011;66556;52.008;5.432;2023-03-23T10:00:19;10.9;;;2.6;;
59653;SDS011;66556;52.008;5.432;2023-03-23T10:02:02;9.31;;;2.7;;
59653;SDS011;66556;52.008;5.432;2023-03-23T10:03:58;13.4;;;2.6;;
59653;SDS011;66556;52.008;5.432;2023-03-23T10:05:52;11.1;;;2.7;;
59653;SDS011;66556;52.008;5.432;2023-03-23T10:09:06;12.1;;;2.8;;
59653;SDS011;66556;52.008;5.432;2023-03-23T10:10:53;12.2;;;3.0;;
59653;SDS011;66556;52.008;5.432;2023-03-23T10:12:40;10.8;;;2.9;;
59653;SDS011;66556;52.008;5.432;2023-03-23T10:14:28;14.1;;;3.2;;
59653;SDS011;66556;52.008;5.432;2023-03-23T10:16:17;12.6;;;3.3;;
59653;SDS011;66556;52.008;5.432;2023-03-23T10:19:51;12.5;;;3.2;;
59653;SDS011;66556;52.008;5.432;2023-03-23T10:21:51;16.7;;;3.2;;
59653;SDS011;66556;52.008;5.432;2023-03-23T10:23:42;10.4;;;2.9;;
59653;SDS011;66556;52.008;5.432;2023-03-23T10:25:28;12.1;;;3.0;;
59653;SDS011;66556;52.008;5.432;2023-03-23T10:27:13;10.21;;;3.2;;
59653;SDS011;66556;52.008;5.432;2023-03-23T10:28:56;12.4;;;3.2;;
59653;SDS011;66556;52.008;5.432;2023-03-23T10:32:17;11.9;;;2.9;;
59653;SDS011;66556;52.008;5.432;2023-03-23T10:33:59;10.5;;;2.9;;
59653;SDS011;66556;52.008;5.432;2023-03-23T10:35:42;13.0;;;3.2;;
59653;SDS011;66556;52.008;5.432;2023-03-23T10:37:34;11.7;;;3.0;;
59653;SDS011;66556;52.008;5.432;2023-03-23T10:39:16;15.5;;;3.2;;
59653;SDS011;66556;52.008;5.432;2023-03-23T10:42:41;12.2;;;2.9;;
59653;SDS011;66556;52.008;5.432;2023-03-23T10:44:20;11.6;;;2.8;;
59653;SDS011;66556;52.008;5.432;2023-03-23T10:46:00;13.8;;;3.3;;
59653;SDS011;66556;52.008;5.432;2023-03-23T10:47:49;11.6;;;3.2;;
59653;SDS011;66556;52.008;5.432;2023-03-23T10:49:33;17.41;;;3.6;;
59653;SDS011;66556;52.008;5.432;2023-03-23T10:52:55;15.6;;;3.4;;
59653;SDS011;66556;52.008;5.432;2023-03-23T10:54:36;12.4;;;3.6;;
59653;SDS011;66556;52.008;5.432;2023-03-23T10:56:22;15.8;;;3.5;;
59653;SDS011;66556;52.008;5.432;2023-03-23T10:58:02;13.7;;;3.1;;
59653;SDS011;66556;52.008;5.432;2023-03-23T11:01:18;12.9;;;3.4;;
59653;SDS011;66556;52.008;5.432;2023-03-23T11:02:58;14.3;;;3.5;;
59653;SDS011;66556;52.008;5.432;2023-03-23T11:04:37;14.2;;;3.6;;
59653;SDS011;66556;52.008;5.432;2023-03-23T11:07:57;14.4;;;3.1;;
59653;SDS011;66556;52.008;5.432;2023-03-23T11:09:36;18.11;;;3.8;;
59653;SDS011;66556;52.008;5.432;2023-03-23T11:11:14;16.7;;;3.4;;
59653;SDS011;66556;52.008;5.432;2023-03-23T11:12:56;13.4;;;3.5;;
59653;SDS011;66556;52.008;5.432;2023-03-23T11:16:21;14.9;;;2.9;;
59653;SDS011;66556;52.008;5.432;2023-03-23T11:18:01;12.5;;;2.9;;
59653;SDS011;66556;52.008;5.432;2023-03-23T11:19:39;12.7;;;2.9;;
59653;SDS011;66556;52.008;5.432;2023-03-23T11:21:15;13.1;;;3.0;;
59653;SDS011;66556;52.008;5.432;2023-03-23T11:24:29;13.5;;;2.9;;
59653;SDS011;66556;52.008;5.432;2023-03-23T11:26:10;16.0;;;3.4;;
59653;SDS011;66556;52.008;5.432;2023-03-23T11:27:50;11.8;;;3.1;;
59653;SDS011;66556;52.008;5.432;2023-03-23T11:29:26;13.1;;;3.1;;
59653;SDS011;66556;52.008;5.432;2023-03-23T11:32:43;14.0;;;3.4;;
59653;SDS011;66556;52.008;5.432;2023-03-23T11:34:21;13.3;;;3.1;;
59653;SDS011;66556;52.008;5.432;2023-03-23T11:36:00;14.8;;;3.4;;
59653;SDS011;66556;52.008;5.432;2023-03-23T11:39:21;15.3;;;3.1;;
59653;SDS011;66556;52.008;5.432;2023-03-23T11:40:59;12.8;;;3.4;;
59653;SDS011;66556;52.008;5.432;2023-03-23T11:42:38;13.3;;;3.5;;
59653;SDS011;66556;52.008;5.432;2023-03-23T11:44:21;13.7;;;3.4;;
59653;SDS011;66556;52.008;5.432;2023-03-23T11:46:02;13.0;;;3.0;;
59653;SDS011;66556;52.008;5.432;2023-03-23T11:49:38;15.0;;;3.2;;
59653;SDS011;66556;52.008;5.432;2023-03-23T11:51:23;13.6;;;3.0;;
59653;SDS011;66556;52.008;5.432;2023-03-23T11:53:10;13.4;;;2.9;;
59653;SDS011;66556;52.008;5.432;2023-03-23T11:54:56;11.5;;;2.9;;
59653;SDS011;66556;52.008;5.432;2023-03-23T11:56:41;12.8;;;3.0;;
59653;SDS011;66556;52.008;5.432;2023-03-23T11:59:56;13.3;;;3.0;;
59653;SDS011;66556;52.008;5.432;2023-03-23T12:01:38;11.4;;;2.6;;
59653;SDS011;66556;52.008;5.432;2023-03-23T12:03:38;13.4;;;3.1;;
59653;SDS011;66556;52.008;5.432;2023-03-23T12:05:34;11.8;;;2.6;;
59653;SDS011;66556;52.008;5.432;2023-03-23T12:07:24;13.6;;;2.9;;
59653;SDS011;66556;52.008;5.432;2023-03-23T12:09:21;12.5;;;3.0;;
59653;SDS011;66556;52.008;5.432;2023-03-23T12:11:14;11.2;;;2.5;;
59653;SDS011;66556;52.008;5.432;2023-03-23T12:14:53;11.5;;;2.5;;
59653;SDS011;66556;52.008;5.432;2023-03-23T12:16:42;13.8;;;2.8;;
59653;SDS011;66556;52.008;5.432;2023-03-23T12:18:37;11.5;;;2.5;;
59653;SDS011;66556;52.008;5.432;2023-03-23T12:20:31;12.7;;;2.8;;
59653;SDS011;66556;52.008;5.432;2023-03-23T12:22:19;12.5;;;2.6;;
59653;SDS011;66556;52.008;5.432;2023-03-23T12:24:21;11.0;;;2.6;;
59653;SDS011;66556;52.008;5.432;2023-03-23T12:26:15;9.31;;;2.5;;
59653;SDS011;66556;52.008;5.432;2023-03-23T12:27:59;8.9;;;2.21;;
59653;SDS011;66556;52.008;5.432;2023-03-23T12:31:40;9.1;;;2.1;;
59653;SDS011;66556;52.008;5.432;2023-03-23T12:33:27;11.8;;;2.5;;
59653;SDS011;66556;52.008;5.432;2023-03-23T12:35:20;9.1;;;2.4;;
59653;SDS011;66556;52.008;5.432;2023-03-23T12:37:15;10.7;;;2.4;;
59653;SDS011;66556;52.008;5.432;2023-03-23T12:39:25;9.81;;;2.6;;
59653;SDS011;66556;52.008;5.432;2023-03-23T12:41:20;10.21;;;2.5;;
59653;SDS011;66556;52.008;5.432;2023-03-23T12:43:04;11.3;;;2.4;;
59653;SDS011;66556;52.008;5.432;2023-03-23T12:45:01;11.3;;;2.6;;
59653;SDS011;66556;52.008;5.432;2023-03-23T12:46:51;11.6;;;2.7;;
59653;SDS011;66556;52.008;5.432;2023-03-23T12:49:29;13.7;;;2.5;;
59653;SDS011;66556;52.008;5.432;2023-03-23T12:51:13;9.0;;;2.31;;
59653;SDS011;66556;52.008;5.432;2023-03-23T12:52:58;11.5;;;2.6;;
59653;SDS011;66556;52.008;5.432;2023-03-23T12:56:23;11.6;;;2.5;;